createdAt,value
2022-10-10T00:00:51.965Z,98622.38
2022-10-10T00:03:19.864Z,98618.84
2022-10-10T00:05:46.442Z,98622.63
2022-10-10T00:08:13.146Z,98618.50
2022-10-10T00:10:39.661Z,98627.97
2022-10-10T00:13:06.263Z,98616.34
2022-10-10T00:15:33.328Z,98621.94
2022-10-10T00:18:00.235Z,98618.72
2022-10-10T00:20:27.153Z,98619.81
2022-10-10T00:22:54.332Z,98619.81
2022-10-10T00:25:20.877Z,98620.31
2022-10-10T00:27:47.438Z,98618.97
2022-10-10T00:30:14.093Z,98615.53
2022-10-10T00:32:40.693Z,98611.44
2022-10-10T00:35:07.629Z,98611.22
2022-10-10T00:37:34.140Z,98606.84
2022-10-10T00:40:00.662Z,98607.94
2022-10-10T00:42:27.161Z,98608.50
2022-10-10T00:45:24.480Z,98607.38
2022-10-10T00:47:56.913Z,98607.88
2022-10-10T00:50:24.805Z,98607.81
2022-10-10T00:52:52.187Z,98604.50
2022-10-10T00:55:19.429Z,98608.91
2022-10-10T00:57:46.448Z,98608.28
2022-10-10T01:00:13.843Z,98604.50
2022-10-10T01:02:40.557Z,98603.78
2022-10-10T01:05:07.356Z,98606.50
2022-10-10T01:07:34.588Z,98610.50
2022-10-10T01:10:11.813Z,98617.59
2022-10-10T01:13:03.006Z,98607.88
2022-10-10T01:15:35.737Z,98607.88
2022-10-10T01:18:30.057Z,98602.25
2022-10-10T01:21:13.240Z,98605.69
2022-10-10T01:24:17.647Z,98613.91
2022-10-10T01:27:06.517Z,98599.59
2022-10-10T01:29:39.060Z,98608.50
2022-10-10T01:32:13.464Z,98614.44
2022-10-10T01:35:14.426Z,98610.13
2022-10-10T01:37:56.778Z,98609.03
2022-10-10T01:41:04.746Z,98609.53
2022-10-10T01:43:31.424Z,98607.59
2022-10-10T01:45:58.180Z,98602.72
2022-10-10T01:48:30.245Z,98611.66
2022-10-10T01:51:15.218Z,98613.81
2022-10-10T01:54:23.148Z,98616.50
2022-10-10T01:57:05.159Z,98609.84
2022-10-10T01:59:40.602Z,98602.53
2022-10-10T02:02:40.502Z,98597.41
2022-10-10T02:05:14.070Z,98599.78
2022-10-10T02:07:57.274Z,98596.03
2022-10-10T02:10:31.315Z,98590.09
2022-10-10T02:12:59.494Z,98591.88
2022-10-10T02:15:31.548Z,98592.63
2022-10-10T02:18:00.391Z,98587.66
2022-10-10T02:20:29.224Z,98592.19
2022-10-10T02:22:56.634Z,98589.41
2022-10-10T02:25:29.472Z,98587.78
2022-10-10T02:28:11.389Z,98585.59
2022-10-10T02:30:43.004Z,98580.22
2022-10-10T02:33:10.885Z,98586.63
2022-10-10T02:35:42.789Z,98584.47
2022-10-10T02:38:12.945Z,98588.75
2022-10-10T02:40:41.739Z,98584.19
2022-10-10T02:43:11.036Z,98579.59
2022-10-10T02:45:39.598Z,98583.94
2022-10-10T02:48:06.585Z,98583.06
2022-10-10T02:50:34.055Z,98585.50
2022-10-10T02:53:00.570Z,98582.00
2022-10-10T02:55:27.255Z,98581.03
2022-10-10T02:57:54.090Z,98588.53
2022-10-10T03:00:20.703Z,98583.16
2022-10-10T03:02:47.378Z,98585.09
2022-10-10T03:05:14.339Z,98589.34
2022-10-10T03:07:40.859Z,98582.84
2022-10-10T03:10:07.786Z,98584.81
2022-10-10T03:12:35.485Z,98587.03
2022-10-10T03:15:02.284Z,98586.72
2022-10-10T03:17:28.913Z,98576.25
2022-10-10T03:19:55.404Z,98573.53
2022-10-10T03:22:22.040Z,98584.13
2022-10-10T03:24:48.588Z,98578.13
2022-10-10T03:27:15.179Z,98570.63
2022-10-10T03:29:41.659Z,98579.28
2022-10-10T03:32:11.031Z,98575.50
2022-10-10T03:34:37.912Z,98584.69
2022-10-10T03:37:04.700Z,98576.00
2022-10-10T03:39:31.235Z,98578.38
2022-10-10T03:41:57.878Z,98577.00
2022-10-10T03:44:24.518Z,98588.84
2022-10-10T03:46:51.021Z,98584.75
2022-10-10T03:49:17.755Z,98581.03
2022-10-10T03:51:44.305Z,98588.94
2022-10-10T03:54:10.936Z,98582.44
2022-10-10T03:56:37.491Z,98582.94
2022-10-10T03:59:06.135Z,98589.41
2022-10-10T04:01:33.432Z,98593.13
2022-10-10T04:04:00.265Z,98587.84
2022-10-10T04:06:27.697Z,98596.63
2022-10-10T04:08:54.244Z,98592.09
2022-10-10T04:11:21.010Z,98605.31
2022-10-10T04:13:47.710Z,98599.38
2022-10-10T04:16:14.581Z,98605.59
2022-10-10T04:18:41.134Z,98605.13
2022-10-10T04:21:07.668Z,98604.44
2022-10-10T04:23:35.174Z,98601.47
2022-10-10T04:26:01.865Z,98597.16
2022-10-10T04:28:28.404Z,98599.31
2022-10-10T04:30:56.692Z,98598.81
2022-10-10T04:33:23.363Z,98601.16
2022-10-10T04:35:50.466Z,98605.25
2022-10-10T04:38:17.972Z,98606.03
2022-10-10T04:40:44.526Z,98608.03
2022-10-10T04:43:11.078Z,98600.94
2022-10-10T04:45:37.895Z,98600.13
2022-10-10T04:48:05.001Z,98604.16
2022-10-10T04:50:31.611Z,98606.97
2022-10-10T04:52:58.140Z,98603.41
2022-10-10T04:55:24.677Z,98608.56
2022-10-10T04:57:51.220Z,98604.13
2022-10-10T05:00:17.739Z,98604.72
2022-10-10T05:02:44.209Z,98609.03
2022-10-10T05:05:11.038Z,98603.66
2022-10-10T05:07:37.983Z,98606.91
2022-10-10T05:10:06.177Z,98599.59
2022-10-10T05:12:33.226Z,98604.44
2022-10-10T05:14:59.885Z,98603.09
2022-10-10T05:17:26.433Z,98595.78
2022-10-10T05:19:53.846Z,98605.13
2022-10-10T05:22:20.549Z,98601.09
2022-10-10T05:24:47.084Z,98597.59
2022-10-10T05:27:13.834Z,98607.69
2022-10-10T05:29:40.890Z,98602.84
2022-10-10T05:32:10.270Z,98607.72
2022-10-10T05:34:40.589Z,98603.97
2022-10-10T05:37:09.368Z,98605.53
2022-10-10T05:39:41.555Z,98608.28
2022-10-10T05:42:11.288Z,98619.09
2022-10-10T05:44:37.746Z,98615.81
2022-10-10T05:47:04.499Z,98616.03
2022-10-10T05:49:30.976Z,98609.31
2022-10-10T05:51:57.522Z,98615.81
2022-10-10T05:54:24.560Z,98610.44
2022-10-10T05:56:50.991Z,98615.41
2022-10-10T05:59:17.455Z,98617.72
2022-10-10T06:01:43.903Z,98626.69
2022-10-10T06:04:10.325Z,98622.47
2022-10-10T06:06:36.778Z,98619.19
2022-10-10T06:09:03.842Z,98623.53
2022-10-10T06:11:30.301Z,98622.59
2022-10-10T06:13:57.302Z,98627.41
2022-10-10T06:16:26.195Z,98634.78
2022-10-10T06:18:53.212Z,98631.06
2022-10-10T06:21:20.407Z,98631.41
2022-10-10T06:23:46.853Z,98627.34
2022-10-10T06:26:13.285Z,98636.88
2022-10-10T06:28:39.744Z,98635.91
2022-10-10T06:31:08.477Z,98647.25
2022-10-10T06:33:37.228Z,98644.06
2022-10-10T06:36:08.185Z,98649.44
2022-10-10T06:38:39.343Z,98651.56
2022-10-10T06:41:07.114Z,98651.34
2022-10-10T06:43:34.279Z,98657.25
2022-10-10T06:46:02.185Z,98660.81
2022-10-10T06:48:34.748Z,98663.22
2022-10-10T06:51:04.917Z,98653.81
2022-10-10T06:53:32.202Z,98660.81
2022-10-10T06:55:59.229Z,98663.81
2022-10-10T06:58:27.821Z,98672.03
2022-10-10T07:00:56.681Z,98677.72
2022-10-10T07:03:23.756Z,98680.78
2022-10-10T07:05:52.501Z,98682.72
2022-10-10T07:08:19.916Z,98684.84
2022-10-10T07:10:47.163Z,98684.03
2022-10-10T07:13:14.192Z,98695.66
2022-10-10T07:15:40.715Z,98682.63
2022-10-10T07:18:07.953Z,98682.03
2022-10-10T07:20:35.384Z,98684.88
2022-10-10T07:23:02.863Z,98698.31
2022-10-10T07:25:29.321Z,98699.19
2022-10-10T07:27:56.988Z,98713.31
2022-10-10T07:30:25.215Z,98713.34
2022-10-10T07:32:55.484Z,98716.16
2022-10-10T07:35:23.094Z,98705.69
2022-10-10T07:37:54.241Z,98704.41
2022-10-10T07:40:20.718Z,98712.59
2022-10-10T07:42:47.227Z,98704.25
2022-10-10T07:45:13.897Z,98707.34
2022-10-10T07:47:40.813Z,98711.72
2022-10-10T07:50:08.071Z,98715.31
2022-10-10T07:52:35.529Z,98720.97
2022-10-10T07:55:04.107Z,98724.81
2022-10-10T07:57:34.954Z,98723.38
2022-10-10T08:00:07.998Z,98718.16
2022-10-10T08:02:34.762Z,98719.81
2022-10-10T08:05:01.182Z,98714.81
2022-10-10T08:07:28.082Z,98717.22
2022-10-10T08:09:54.567Z,98715.53
2022-10-10T08:12:21.459Z,98713.78
2022-10-10T08:14:47.949Z,98725.63
2022-10-10T08:17:14.479Z,98710.25
2022-10-10T08:19:40.917Z,98709.81
2022-10-10T08:22:07.627Z,98712.47
2022-10-10T08:24:34.087Z,98707.31
2022-10-10T08:27:00.511Z,98717.63
2022-10-10T08:29:27.003Z,98719.53
2022-10-10T08:31:53.468Z,98722.59
2022-10-10T08:34:19.990Z,98714.97
2022-10-10T08:36:46.420Z,98714.34
2022-10-10T08:39:12.889Z,98707.94
2022-10-10T08:41:49.801Z,98704.34
2022-10-10T08:44:20.033Z,98715.19
2022-10-10T08:46:59.590Z,98704.75
2022-10-10T08:49:37.175Z,98706.56
2022-10-10T08:52:41.101Z,98714.03
2022-10-10T08:55:18.758Z,98720.06
2022-10-10T08:57:51.377Z,98710.69
2022-10-10T09:00:22.139Z,98710.53
2022-10-10T09:02:56.499Z,98706.88
2022-10-10T09:05:56.172Z,98709.88
2022-10-10T09:08:33.892Z,98717.63
2022-10-10T09:11:22.925Z,98716.06
2022-10-10T09:14:34.952Z,98708.31
2022-10-10T09:17:26.088Z,98710.50
2022-10-10T09:20:21.868Z,98715.47
2022-10-10T09:23:07.808Z,98709.50
2022-10-10T09:25:40.269Z,98718.56
2022-10-10T09:28:13.585Z,98723.88
2022-10-10T09:30:45.234Z,98709.09
2022-10-10T09:33:27.427Z,98717.56
2022-10-10T09:35:57.683Z,98720.63
2022-10-10T09:38:35.673Z,98724.78
2022-10-10T09:41:05.342Z,98727.25
2022-10-10T09:43:34.280Z,98733.28
2022-10-10T09:46:01.568Z,98729.59
2022-10-10T09:48:32.864Z,98725.78
2022-10-10T09:51:01.351Z,98729.00
2022-10-10T09:53:28.161Z,98727.69
2022-10-10T09:55:54.983Z,98725.44
2022-10-10T09:58:30.142Z,98731.94
2022-10-10T10:01:20.388Z,98736.41
2022-10-10T10:04:23.396Z,98727.72
2022-10-10T10:07:07.311Z,98733.59
2022-10-10T10:09:34.183Z,98732.38
2022-10-10T10:12:01.682Z,98728.72
2022-10-10T10:14:37.124Z,98729.25
2022-10-10T10:17:29.979Z,98728.72
2022-10-10T10:19:56.489Z,98722.28
2022-10-10T10:22:38.570Z,98730.13
2022-10-10T10:25:32.968Z,98720.75
2022-10-10T10:28:11.643Z,98724.94
2022-10-10T10:30:39.764Z,98726.47
2022-10-10T10:33:41.428Z,98724.19
2022-10-10T10:36:32.636Z,98726.03
2022-10-10T10:39:13.899Z,98721.91
2022-10-10T10:41:53.991Z,98717.69
2022-10-10T10:44:38.559Z,98717.22
2022-10-10T10:48:01.226Z,98714.50
2022-10-10T10:50:38.299Z,98714.53
2022-10-10T10:53:18.891Z,98714.22
2022-10-10T10:56:02.233Z,98723.34
2022-10-10T11:01:58.027Z,98710.94
2022-10-10T11:05:25.201Z,98705.53
2022-10-10T11:07:22.241Z,98709.72
2022-10-10T11:09:51.454Z,98705.97
2022-10-10T11:12:33.659Z,98712.16
2022-10-10T11:15:10.569Z,98704.00
2022-10-10T11:17:45.332Z,98708.34
2022-10-10T11:20:45.621Z,98714.88
2022-10-10T11:23:18.674Z,98698.00
2022-10-10T11:26:03.236Z,98691.75
2022-10-10T11:28:40.084Z,98693.75
2022-10-10T11:31:17.181Z,98696.47
2022-10-10T11:33:54.300Z,98696.19
2022-10-10T11:36:26.516Z,98697.53
2022-10-10T11:39:16.799Z,98684.09
2022-10-10T11:41:54.280Z,98689.88
2022-10-10T11:44:39.677Z,98691.53
2022-10-10T11:47:28.230Z,98682.19
2022-10-10T11:50:03.804Z,98678.78
2022-10-10T11:52:48.527Z,98681.50
2022-10-10T11:55:31.384Z,98680.53
2022-10-10T11:58:07.081Z,98677.22
2022-10-10T12:00:57.868Z,98670.44
2022-10-10T12:03:26.318Z,98669.56
2022-10-10T12:06:00.518Z,98665.56
2022-10-10T12:08:43.477Z,98659.41
2022-10-10T12:11:13.265Z,98656.25
2022-10-10T12:13:45.092Z,98657.19
2022-10-10T12:16:19.342Z,98654.34
2022-10-10T12:18:51.886Z,98652.91
2022-10-10T12:21:19.778Z,98650.44
2022-10-10T12:24:00.559Z,98653.56
2022-10-10T12:26:55.060Z,98641.34
2022-10-10T12:29:41.755Z,98640.41
2022-10-10T12:32:14.307Z,98639.41
2022-10-10T12:34:42.477Z,98637.16
2022-10-10T12:37:26.503Z,98642.75
2022-10-10T12:40:05.270Z,98644.66
2022-10-10T12:42:46.908Z,98630.84
2022-10-10T12:45:28.633Z,98634.59
2022-10-10T12:48:07.090Z,98634.38
2022-10-10T12:50:40.417Z,98627.13
2022-10-10T12:53:12.947Z,98626.25
2022-10-10T12:55:44.004Z,98634.28
2022-10-10T12:58:26.527Z,98624.28
2022-10-10T13:00:55.778Z,98627.47
2022-10-10T13:03:31.697Z,98621.19
2022-10-10T13:06:35.529Z,98624.69
2022-10-10T13:09:07.607Z,98616.69
2022-10-10T13:11:50.631Z,98622.00
2022-10-10T13:14:17.059Z,98624.53
2022-10-10T13:16:44.513Z,98619.50
2022-10-10T13:19:19.728Z,98615.94
2022-10-10T13:21:47.166Z,98627.66
2022-10-10T13:24:17.745Z,98617.84
2022-10-10T13:26:50.439Z,98622.56
2022-10-10T13:29:22.026Z,98629.72
2022-10-10T13:31:50.041Z,98614.00
2022-10-10T13:34:23.480Z,98622.63
2022-10-10T13:36:57.760Z,98619.19
2022-10-10T13:39:25.359Z,98618.13
2022-10-10T13:41:53.762Z,98616.72
2022-10-10T13:44:30.525Z,98617.25
2022-10-10T13:46:57.076Z,98614.91
2022-10-10T13:49:27.261Z,98609.72
2022-10-10T13:52:21.539Z,98610.13
2022-10-10T13:54:49.026Z,98611.78
2022-10-10T13:57:19.665Z,98610.81
2022-10-10T13:59:49.518Z,98610.81
2022-10-10T14:02:19.049Z,98615.81
2022-10-10T14:04:50.776Z,98615.84
2022-10-10T14:07:22.100Z,98614.31
2022-10-10T14:09:59.090Z,98612.47
2022-10-10T14:12:35.810Z,98616.31
2022-10-10T14:15:04.950Z,98618.53
2022-10-10T14:17:31.484Z,98613.13
2022-10-10T14:19:58.011Z,98619.19
2022-10-10T14:22:24.513Z,98617.81
2022-10-10T14:24:50.986Z,98619.38
2022-10-10T14:27:26.923Z,98624.81
2022-10-10T14:29:55.965Z,98623.19
2022-10-10T14:32:23.005Z,98632.59
2022-10-10T14:34:49.637Z,98634.09
2022-10-10T14:37:17.819Z,98628.69
2022-10-10T14:39:44.597Z,98629.75
2022-10-10T14:42:13.338Z,98629.22
2022-10-10T14:44:39.822Z,98628.28
2022-10-10T14:47:07.159Z,98625.94
2022-10-10T14:49:33.626Z,98631.88
2022-10-10T14:52:01.457Z,98641.34
2022-10-10T14:54:27.890Z,98638.50
2022-10-10T14:57:08.899Z,98638.25
2022-10-10T14:59:47.260Z,98648.25
2022-10-10T15:02:21.775Z,98641.75
2022-10-10T15:04:49.201Z,98654.72
2022-10-10T15:07:16.190Z,98661.06
2022-10-10T15:12:36.077Z,98654.47
2022-10-10T15:15:02.872Z,98650.56
2022-10-10T15:17:31.024Z,98658.97
2022-10-10T15:19:57.531Z,98660.09
2022-10-10T15:22:24.051Z,98663.97
2022-10-10T15:24:50.527Z,98659.78
2022-10-10T15:27:16.938Z,98658.66
2022-10-10T15:29:43.381Z,98669.94
2022-10-10T15:32:09.828Z,98664.28
2022-10-10T15:34:36.498Z,98665.09
2022-10-10T15:37:03.034Z,98660.75
2022-10-10T15:39:30.910Z,98666.56
2022-10-10T15:41:57.515Z,98665.44
2022-10-10T15:44:23.984Z,98667.66
2022-10-10T15:46:50.705Z,98665.91
2022-10-10T15:49:17.132Z,98659.78
2022-10-10T15:51:45.804Z,98666.53
2022-10-10T15:54:13.195Z,98665.41
2022-10-10T15:56:40.158Z,98669.94
2022-10-10T15:59:08.262Z,98679.56
2022-10-10T16:01:35.684Z,98673.38
2022-10-10T16:04:03.622Z,98684.13
2022-10-10T16:06:30.053Z,98680.56
2022-10-10T16:09:16.366Z,98677.97
2022-10-10T16:11:43.023Z,98681.78
2022-10-10T16:14:10.036Z,98686.75
2022-10-10T16:16:36.496Z,98683.63
2022-10-10T16:19:03.352Z,98686.88
2022-10-10T16:21:30.517Z,98687.44
2022-10-10T16:23:58.270Z,98692.53
2022-10-10T16:26:29.243Z,98687.81
2022-10-10T16:28:56.407Z,98688.44
2022-10-10T16:31:25.032Z,98694.66
2022-10-10T16:33:51.781Z,98699.28
2022-10-10T16:36:28.133Z,98704.84
2022-10-10T16:38:57.350Z,98703.00
2022-10-10T16:41:46.581Z,98704.66
2022-10-10T16:44:13.113Z,98705.06
2022-10-10T16:46:39.607Z,98717.44
2022-10-10T16:49:06.021Z,98716.75
2022-10-10T16:51:32.685Z,98713.84
2022-10-10T16:54:01.640Z,98722.44
2022-10-10T16:56:28.445Z,98723.28
2022-10-10T16:58:54.933Z,98722.75
2022-10-10T17:01:23.192Z,98738.47
2022-10-10T17:03:50.562Z,98737.94
2022-10-10T17:06:19.538Z,98744.25
2022-10-10T17:08:47.667Z,98741.31
2022-10-10T17:11:14.745Z,98747.09
2022-10-10T17:13:42.205Z,98742.31
2022-10-10T17:16:47.718Z,98746.03
2022-10-10T17:19:00.860Z,98752.56
2022-10-10T17:21:27.427Z,98756.88
2022-10-10T17:23:54.184Z,98756.34
2022-10-10T17:26:26.072Z,98759.38
2022-10-10T17:28:57.791Z,98766.66
2022-10-10T17:31:24.962Z,98767.50
2022-10-10T17:33:54.188Z,98771.50
2022-10-10T17:36:24.138Z,98776.47
2022-10-10T17:38:51.882Z,98775.88
2022-10-10T17:41:20.208Z,98781.31
2022-10-10T17:43:46.701Z,98786.03
2022-10-10T17:46:40.388Z,98790.78
2022-10-10T17:49:09.024Z,98792.19
2022-10-10T17:51:36.650Z,98798.91
2022-10-10T17:54:04.448Z,98809.38
2022-10-10T17:56:31.634Z,98806.53
2022-10-10T17:59:00.533Z,98805.31
2022-10-10T18:01:27.752Z,98805.50
2022-10-10T18:03:54.243Z,98812.66
2022-10-10T18:06:22.707Z,98811.88
2022-10-10T18:08:51.279Z,98819.91
2022-10-10T18:11:20.802Z,98819.66
2022-10-10T18:13:47.301Z,98820.22
2022-10-10T18:16:16.594Z,98824.91
2022-10-10T18:18:50.339Z,98825.66
2022-10-10T18:21:19.548Z,98826.41
2022-10-10T18:23:46.065Z,98826.13
2022-10-10T18:26:24.200Z,98839.16
2022-10-10T18:28:52.617Z,98834.00
2022-10-10T18:31:32.957Z,98840.00
2022-10-10T18:34:00.726Z,98843.28
2022-10-10T18:36:30.168Z,98845.69
2022-10-10T18:39:05.495Z,98859.59
2022-10-10T18:41:34.849Z,98848.72
2022-10-10T18:44:06.947Z,98854.41
2022-10-10T18:46:34.701Z,98862.31
2022-10-10T18:49:02.314Z,98861.53
2022-10-10T18:51:29.859Z,98864.78
2022-10-10T18:54:07.513Z,98864.50
2022-10-10T18:56:36.326Z,98863.13
2022-10-10T18:59:04.857Z,98863.41
2022-10-10T19:01:36.188Z,98867.00
2022-10-10T19:04:05.097Z,98865.66
2022-10-10T19:06:31.683Z,98875.16
2022-10-10T19:08:59.797Z,98878.09
2022-10-10T19:11:32.332Z,98867.81
2022-10-10T19:14:00.711Z,98880.63
2022-10-10T19:16:27.834Z,98878.72
2022-10-10T19:18:58.613Z,98877.69
2022-10-10T19:21:27.098Z,98880.91
2022-10-10T19:23:53.542Z,98887.97
2022-10-10T19:26:20.001Z,98892.31
2022-10-10T19:28:46.859Z,98890.91
2022-10-10T19:31:16.044Z,98887.94
2022-10-10T19:33:43.366Z,98885.16
2022-10-10T19:36:11.558Z,98889.78
2022-10-10T19:38:40.131Z,98888.19
2022-10-10T19:41:08.706Z,98880.63
2022-10-10T19:43:35.149Z,98890.69
2022-10-10T19:46:06.453Z,98897.53
2022-10-10T19:48:33.608Z,98900.56
2022-10-10T19:51:04.547Z,98906.81
2022-10-10T19:53:33.336Z,98910.88
2022-10-10T19:56:04.106Z,98916.31
2022-10-10T19:58:30.854Z,98916.56
2022-10-10T20:00:57.791Z,98924.50
2022-10-10T20:03:24.991Z,98929.38
2022-10-10T20:05:51.770Z,98928.31
2022-10-10T20:08:20.179Z,98927.22
2022-10-10T20:10:46.678Z,98931.53
2022-10-10T20:13:15.986Z,98930.72
2022-10-10T20:15:47.210Z,98939.75
2022-10-10T20:18:13.689Z,98949.03
2022-10-10T20:20:47.748Z,98946.03
2022-10-10T20:23:15.549Z,98945.53
2022-10-10T20:25:43.947Z,98943.63
2022-10-10T20:28:12.017Z,98959.38
2022-10-10T20:30:41.165Z,98962.47
2022-10-10T20:33:08.299Z,98960.81
2022-10-10T20:35:35.809Z,98966.75
2022-10-10T20:38:04.416Z,98967.06
2022-10-10T20:40:31.374Z,98969.47
2022-10-10T20:42:57.901Z,98971.13
2022-10-10T20:45:24.494Z,98986.09
2022-10-10T20:47:50.954Z,98985.59
2022-10-10T20:50:17.672Z,98991.03
2022-10-10T20:52:44.580Z,98986.38
2022-10-10T20:55:11.160Z,98985.59
2022-10-10T20:57:38.430Z,98986.94
2022-10-10T21:00:06.085Z,98986.16
2022-10-10T21:02:33.895Z,98991.84
2022-10-10T21:05:00.408Z,98999.50
2022-10-10T21:07:29.002Z,98995.41
2022-10-10T21:09:55.544Z,98997.06
2022-10-10T21:12:22.083Z,98992.47
2022-10-10T21:14:48.611Z,98991.94
2022-10-10T21:17:15.056Z,98991.41
2022-10-10T21:19:41.538Z,98991.38
2022-10-10T21:22:08.030Z,98998.72
2022-10-10T21:24:34.543Z,99002.25
2022-10-10T21:27:00.972Z,98993.03
2022-10-10T21:29:27.450Z,98993.28
2022-10-10T21:31:53.886Z,98994.38
2022-10-10T21:34:20.337Z,98998.44
2022-10-10T21:36:47.026Z,98988.16
2022-10-10T21:39:14.519Z,98992.22
2022-10-10T21:41:41.312Z,98983.53
2022-10-10T21:44:08.255Z,98985.97
2022-10-10T21:46:37.049Z,98981.34
2022-10-10T21:49:11.239Z,98984.09
2022-10-10T21:51:45.528Z,98981.63
2022-10-10T21:54:12.644Z,98984.91
2022-10-10T21:56:39.690Z,98977.03
2022-10-10T21:59:06.969Z,98975.41
2022-10-10T22:01:34.016Z,98975.09
2022-10-10T22:04:01.959Z,98974.84
2022-10-10T22:06:28.660Z,98977.31
2022-10-10T22:08:58.270Z,98978.09
2022-10-10T22:11:26.232Z,98978.13
2022-10-10T22:13:53.079Z,98978.38
2022-10-10T22:16:20.366Z,98971.59
2022-10-10T22:18:47.075Z,98970.78
2022-10-10T22:21:15.975Z,98975.91
2022-10-10T22:23:43.678Z,98978.31
2022-10-10T22:26:12.154Z,98975.63
2022-10-10T22:28:39.085Z,98974.53
2022-10-10T22:31:08.047Z,98978.06
2022-10-10T22:33:34.645Z,98977.00
2022-10-10T22:36:01.288Z,98967.78
2022-10-10T22:38:27.889Z,98971.88
2022-10-10T22:40:54.322Z,98967.25
2022-10-10T22:43:24.857Z,98965.34
2022-10-10T22:45:53.191Z,98969.66
2022-10-10T22:48:19.606Z,98967.25
2022-10-10T22:50:46.104Z,98967.75
2022-10-10T22:53:12.676Z,98969.69
2022-10-10T22:55:39.123Z,98973.75
2022-10-10T22:58:05.576Z,98964.53
2022-10-10T23:00:32.069Z,98972.94
2022-10-10T23:02:59.125Z,98975.66
2022-10-10T23:05:26.375Z,98979.16
2022-10-10T23:07:52.830Z,98979.94
2022-10-10T23:10:19.435Z,98977.25
2022-10-10T23:12:45.981Z,98972.13
2022-10-10T23:15:12.432Z,98978.38
2022-10-10T23:17:38.962Z,98976.19
2022-10-10T23:20:06.154Z,98983.28
2022-10-10T23:22:32.627Z,98984.91
2022-10-10T23:24:59.058Z,98988.94
2022-10-10T23:27:25.556Z,98971.03
2022-10-10T23:29:51.994Z,98975.38
2022-10-10T23:32:18.433Z,98971.31
2022-10-10T23:34:44.840Z,98984.63
2022-10-10T23:37:11.448Z,98980.84
2022-10-10T23:39:41.630Z,98987.31
2022-10-10T23:42:08.062Z,98988.09
2022-10-10T23:44:34.575Z,98984.63
2022-10-10T23:47:01.051Z,98973.22
2022-10-10T23:49:27.489Z,98981.09
2022-10-10T23:51:53.934Z,98981.91
2022-10-10T23:54:20.761Z,98982.94
2022-10-10T23:56:47.193Z,98977.25
2022-10-10T23:59:13.664Z,98976.44
